createdAt,value
2018-11-10T00:00:46.961Z,22.33
2018-11-10T00:03:14.348Z,22.10
2018-11-10T00:05:41.898Z,22.00
2018-11-10T00:08:09.521Z,22.37
2018-11-10T00:10:37.000Z,22.77
2018-11-10T00:13:04.712Z,23.90
2018-11-10T00:15:38.176Z,23.53
2018-11-10T00:18:12.010Z,23.43
2018-11-10T00:20:40.352Z,22.90
2018-11-10T00:23:07.847Z,23.23
2018-11-10T00:25:35.682Z,23.63
2018-11-10T00:28:03.170Z,22.43
2018-11-10T00:30:37.087Z,22.23
2018-11-10T00:33:04.934Z,22.80
2018-11-10T00:35:32.551Z,21.83
2018-11-10T00:38:01.038Z,22.87
2018-11-10T00:40:28.616Z,23.03
2018-11-10T00:42:56.087Z,23.77
2018-11-10T00:45:23.945Z,23.40
2018-11-10T00:47:51.393Z,23.03
2018-11-10T00:50:18.927Z,24.53
2018-11-10T00:52:46.298Z,23.23
2018-11-10T00:55:20.026Z,23.43
2018-11-10T00:57:47.497Z,24.17
2018-11-10T01:00:14.918Z,24.00
2018-11-10T01:02:43.482Z,23.80
2018-11-10T01:05:17.217Z,23.87
2018-11-10T01:07:44.673Z,24.47
2018-11-10T01:10:13.285Z,24.80
2018-11-10T01:12:41.178Z,22.17
2018-11-10T01:15:10.413Z,22.93
2018-11-10T01:17:39.017Z,23.27
2018-11-10T01:20:07.660Z,22.37
2018-11-10T01:22:35.235Z,22.77
2018-11-10T01:25:04.273Z,24.17
2018-11-10T01:27:31.882Z,21.00
2018-11-10T01:30:07.150Z,20.83
2018-11-10T01:32:40.673Z,21.63
2018-11-10T01:35:08.141Z,22.20
2018-11-10T01:37:41.801Z,22.27
2018-11-10T01:40:10.518Z,22.17
2018-11-10T01:42:38.065Z,21.67
2018-11-10T01:45:08.701Z,21.37
2018-11-10T01:47:36.139Z,22.13
2018-11-10T01:50:04.296Z,20.50
2018-11-10T01:52:32.670Z,20.07
2018-11-10T01:55:00.131Z,21.53
2018-11-10T01:57:28.411Z,21.83
2018-11-10T02:00:02.154Z,21.03
2018-11-10T02:02:29.522Z,21.50
2018-11-10T02:04:57.229Z,21.00
2018-11-10T02:07:24.718Z,21.50
2018-11-10T02:09:52.154Z,21.23
2018-11-10T02:12:19.825Z,22.03
2018-11-10T02:14:47.349Z,21.30
2018-11-10T02:17:14.713Z,21.97
2018-11-10T02:19:42.092Z,22.13
2018-11-10T02:22:15.731Z,22.17
2018-11-10T02:24:43.146Z,20.40
2018-11-10T02:27:16.294Z,22.23
2018-11-10T02:29:43.822Z,20.00
2018-11-10T02:32:14.025Z,20.63
2018-11-10T02:34:42.370Z,21.53
2018-11-10T02:37:09.856Z,19.97
2018-11-10T02:39:37.258Z,20.37
2018-11-10T02:42:04.955Z,21.63
2018-11-10T02:44:33.205Z,20.90
2018-11-10T02:47:01.436Z,20.60
2018-11-10T02:49:28.833Z,20.20
2018-11-10T02:51:56.237Z,20.03
2018-11-10T02:54:23.732Z,19.30
2018-11-10T02:56:51.198Z,20.60
2018-11-10T02:59:19.553Z,19.73
2018-11-10T03:01:46.960Z,19.37
2018-11-10T03:04:14.397Z,20.10
2018-11-10T03:06:41.830Z,19.20
2018-11-10T03:09:09.521Z,19.63
2018-11-10T03:11:37.408Z,18.23
2018-11-10T03:14:05.007Z,18.63
2018-11-10T03:16:32.458Z,18.10
2018-11-10T03:18:59.836Z,18.43
2018-11-10T03:21:33.485Z,19.57
2018-11-10T03:24:00.904Z,18.33
2018-11-10T03:26:28.344Z,17.30
2018-11-10T03:28:55.996Z,19.03
2018-11-10T03:31:23.400Z,15.90
2018-11-10T03:33:51.813Z,18.73
2018-11-10T03:36:19.189Z,18.73
2018-11-10T03:38:53.811Z,18.03
2018-11-10T03:41:27.477Z,17.03
2018-11-10T03:43:54.879Z,17.83
2018-11-10T03:46:24.542Z,17.53
2018-11-10T03:48:52.059Z,17.97
2018-11-10T03:51:25.639Z,16.97
2018-11-10T03:53:53.073Z,17.87
2018-11-10T03:56:21.338Z,18.30
2018-11-10T03:58:48.772Z,17.80
2018-11-10T04:01:16.239Z,17.63
2018-11-10T04:03:43.694Z,17.33
2018-11-10T04:06:17.441Z,18.47
2018-11-10T04:08:46.208Z,17.10
2018-11-10T04:11:13.799Z,18.23
2018-11-10T04:13:47.470Z,17.37
2018-11-10T04:16:14.888Z,17.07
2018-11-10T04:18:42.509Z,18.43
2018-11-10T04:21:09.966Z,16.43
2018-11-10T04:23:37.345Z,17.43
2018-11-10T04:26:04.856Z,16.53
2018-11-10T04:28:32.299Z,17.33
2018-11-10T04:30:59.881Z,17.07
2018-11-10T04:33:27.307Z,16.93
2018-11-10T04:35:54.747Z,15.90
2018-11-10T04:38:28.524Z,16.80
2018-11-10T04:40:55.949Z,17.03
2018-11-10T04:43:29.649Z,16.90
2018-11-10T04:45:57.089Z,17.43
2018-11-10T04:48:24.593Z,16.27
2018-11-10T04:50:52.037Z,16.07
2018-11-10T04:53:19.498Z,16.27
2018-11-10T04:55:46.969Z,15.63
2018-11-10T04:58:15.261Z,14.50
2018-11-10T05:00:43.829Z,15.33
2018-11-10T05:03:13.182Z,14.33
2018-11-10T05:05:46.900Z,14.60
2018-11-10T05:08:15.149Z,15.20
2018-11-10T05:10:42.746Z,14.93
2018-11-10T05:13:10.180Z,14.83
2018-11-10T05:15:37.582Z,14.43
2018-11-10T05:18:04.989Z,14.37
2018-11-10T05:20:32.415Z,14.53
2018-11-10T05:22:59.848Z,14.37
2018-11-10T05:25:27.280Z,14.00
2018-11-10T05:28:01.042Z,14.90
2018-11-10T05:30:28.525Z,13.47
2018-11-10T05:32:55.930Z,13.90
2018-11-10T05:35:23.312Z,13.00
2018-11-10T05:37:51.729Z,13.83
2018-11-10T05:40:25.213Z,13.07
2018-11-10T05:42:52.651Z,13.53
2018-11-10T05:45:20.123Z,14.03
2018-11-10T05:47:47.526Z,13.17
2018-11-10T05:50:14.973Z,13.90
2018-11-10T05:52:42.536Z,13.37
2018-11-10T05:55:09.994Z,13.37
2018-11-10T05:57:38.073Z,12.13
2018-11-10T06:00:08.211Z,12.67
2018-11-10T06:02:35.611Z,12.50
2018-11-10T06:05:09.878Z,12.40
2018-11-10T06:07:37.302Z,12.37
2018-11-10T06:10:11.578Z,13.40
2018-11-10T06:12:39.301Z,11.83
2018-11-10T06:15:07.503Z,12.27
2018-11-10T06:17:35.152Z,12.17
2018-11-10T06:20:03.197Z,11.87
2018-11-10T06:22:37.021Z,11.50
2018-11-10T06:25:05.003Z,11.50
2018-11-10T06:27:32.557Z,11.93
2018-11-10T06:29:59.935Z,12.10
2018-11-10T06:32:27.393Z,11.50
2018-11-10T06:35:01.029Z,11.67
2018-11-10T06:37:29.711Z,12.00
2018-11-10T06:39:58.153Z,12.23
2018-11-10T06:42:26.659Z,13.57
2018-11-10T06:44:54.171Z,13.50
2018-11-10T06:47:22.374Z,14.43
2018-11-10T06:49:49.819Z,14.33
2018-11-10T06:52:17.297Z,14.37
2018-11-10T06:54:44.682Z,14.23
2018-11-10T06:57:12.956Z,13.87
2018-11-10T06:59:40.358Z,14.90
2018-11-10T07:02:07.915Z,15.07
2018-11-10T07:04:35.380Z,14.60
2018-11-10T07:07:05.849Z,15.33
2018-11-10T07:09:33.352Z,15.37
2018-11-10T07:12:00.737Z,14.47
2018-11-10T07:14:28.877Z,14.40
2018-11-10T07:16:56.306Z,14.30
2018-11-10T07:19:23.730Z,14.27
2018-11-10T07:21:51.166Z,14.10
2018-11-10T07:24:19.357Z,14.63
2018-11-10T07:26:46.780Z,11.53
2018-11-10T07:29:14.174Z,12.67
2018-11-10T07:31:41.751Z,12.50
2018-11-10T07:34:09.145Z,12.17
2018-11-10T07:36:42.837Z,12.43
2018-11-10T07:39:10.896Z,9.93
2018-11-10T07:41:38.338Z,11.10
2018-11-10T07:44:05.750Z,11.13
2018-11-10T07:46:39.405Z,10.13
2018-11-10T07:49:13.029Z,9.97
2018-11-10T07:51:41.286Z,8.90
2018-11-10T07:54:08.667Z,8.90
2018-11-10T07:56:36.073Z,9.10
2018-11-10T07:59:05.152Z,7.93
2018-11-10T08:01:33.531Z,8.80
2018-11-10T08:04:00.960Z,8.03
2018-11-10T08:06:28.480Z,8.43
2018-11-10T08:08:55.922Z,7.60
2018-11-10T08:11:23.365Z,8.30
2018-11-10T08:13:57.359Z,7.93
2018-11-10T08:16:31.037Z,7.27
2018-11-10T08:18:58.469Z,6.80
2018-11-10T08:21:25.901Z,7.13
2018-11-10T08:23:59.641Z,6.87
2018-11-10T08:26:27.323Z,6.27
2018-11-10T08:29:01.102Z,5.77
2018-11-10T08:31:30.405Z,5.67
2018-11-10T08:34:04.163Z,6.27
2018-11-10T08:36:37.886Z,5.93
2018-11-10T08:39:07.337Z,6.10
2018-11-10T08:41:35.694Z,5.17
2018-11-10T08:44:03.145Z,4.43
2018-11-10T08:46:36.750Z,4.83
2018-11-10T08:49:10.415Z,4.30
2018-11-10T08:51:37.833Z,5.40
2018-11-10T08:54:05.488Z,5.40
2018-11-10T08:56:32.935Z,4.13
2018-11-10T08:59:00.481Z,4.83
2018-11-10T09:01:27.921Z,5.03
2018-11-10T09:03:55.398Z,5.57
2018-11-10T09:06:29.023Z,5.87
2018-11-10T09:08:57.289Z,5.27
2018-11-10T09:11:31.032Z,5.40
2018-11-10T09:14:05.595Z,5.30
2018-11-10T09:16:33.122Z,4.53
2018-11-10T09:19:00.620Z,5.07
2018-11-10T09:21:28.259Z,6.07
2018-11-10T09:23:55.513Z,5.00
2018-11-10T09:26:24.121Z,5.43
2018-11-10T09:28:52.318Z,4.90
2018-11-10T09:31:20.573Z,4.63
2018-11-10T09:33:48.000Z,4.40
2018-11-10T09:36:20.650Z,4.70
2018-11-10T09:38:54.314Z,4.80
2018-11-10T09:41:22.885Z,4.40
2018-11-10T09:43:56.437Z,4.73
2018-11-10T09:46:23.898Z,4.80
2018-11-10T09:48:57.354Z,4.97
2018-11-10T09:51:24.853Z,4.40
2018-11-10T09:53:52.254Z,4.70
2018-11-10T09:56:20.551Z,4.83
2018-11-10T09:58:48.050Z,4.47
2018-11-10T10:01:21.839Z,4.50
2018-11-10T10:03:49.360Z,4.53
2018-11-10T10:06:16.882Z,4.30
2018-11-10T10:08:45.345Z,4.23
2018-11-10T10:11:12.782Z,4.00
2018-11-10T10:13:46.501Z,3.90
2018-11-10T10:16:14.854Z,4.00
2018-11-10T10:18:48.796Z,4.60
2018-11-10T10:21:16.404Z,4.53
2018-11-10T10:23:50.030Z,3.60
2018-11-10T10:26:23.622Z,3.67
2018-11-10T10:28:51.295Z,3.40
2018-11-10T10:31:21.768Z,3.67
2018-11-10T10:33:49.819Z,3.47
2018-11-10T10:36:24.271Z,3.57
2018-11-10T10:38:58.209Z,3.77
2018-11-10T10:42:29.866Z,3.47
2018-11-10T10:44:57.408Z,3.97
2018-11-10T10:47:25.306Z,3.00
2018-11-10T10:49:59.053Z,3.70
2018-11-10T10:52:26.518Z,3.53
2018-11-10T10:54:53.925Z,3.10
2018-11-10T10:57:27.582Z,3.00
2018-11-10T10:59:56.970Z,2.80
2018-11-10T11:02:30.067Z,2.77
2018-11-10T11:04:59.105Z,2.90
2018-11-10T11:07:33.042Z,3.67
2018-11-10T11:10:06.759Z,2.97
2018-11-10T11:12:34.185Z,2.87
2018-11-10T11:15:01.665Z,2.73
2018-11-10T11:17:35.477Z,2.83
2018-11-10T11:20:04.381Z,2.80
2018-11-10T11:22:31.909Z,2.80
2018-11-10T11:25:00.142Z,2.80
2018-11-10T11:27:27.827Z,4.73
2018-11-10T11:29:55.346Z,4.70
2018-11-10T11:32:22.816Z,2.67
2018-11-10T11:34:50.442Z,2.30
2018-11-10T11:37:18.014Z,2.60
2018-11-10T11:39:45.730Z,2.80
2018-11-10T11:42:14.093Z,3.43
2018-11-10T11:44:41.766Z,2.90
2018-11-10T11:47:09.434Z,2.83
2018-11-10T11:49:38.069Z,3.20
2018-11-10T11:52:12.433Z,3.07
2018-11-10T11:54:41.219Z,3.23
2018-11-10T11:57:09.906Z,2.80
2018-11-10T11:59:37.924Z,2.63
2018-11-10T12:02:05.793Z,2.87
2018-11-10T12:04:33.214Z,3.00
2018-11-10T12:07:08.058Z,2.83
2018-11-10T12:09:41.902Z,2.83
2018-11-10T12:12:10.247Z,2.60
2018-11-10T12:14:37.719Z,2.57
2018-11-10T12:17:06.501Z,2.47
2018-11-10T12:19:35.007Z,2.60
2018-11-10T12:22:02.764Z,2.70
2018-11-10T12:24:30.089Z,2.30
2018-11-10T12:26:57.705Z,2.50
2018-11-10T12:29:31.358Z,2.40
2018-11-10T12:31:58.849Z,2.23
2018-11-10T12:34:26.318Z,2.63
2018-11-10T12:36:55.011Z,2.33
2018-11-10T12:39:22.435Z,2.23
2018-11-10T12:41:56.097Z,2.70
2018-11-10T12:44:24.024Z,2.63
2018-11-10T12:46:58.234Z,2.47
2018-11-10T12:49:27.779Z,2.27
2018-11-10T12:52:01.393Z,2.40
2018-11-10T12:54:29.561Z,3.07
2018-11-10T12:56:57.494Z,2.63
2018-11-10T12:59:24.873Z,2.40
2018-11-10T13:01:52.568Z,2.73
2018-11-10T13:04:20.574Z,2.50
2018-11-10T13:06:54.519Z,3.00
2018-11-10T13:09:28.370Z,2.70
2018-11-10T13:11:55.876Z,3.17
2018-11-10T13:14:23.258Z,2.97
2018-11-10T13:16:51.019Z,3.00
2018-11-10T13:19:18.489Z,2.93
2018-11-10T13:21:45.969Z,2.97
2018-11-10T13:24:13.476Z,3.50
2018-11-10T13:26:40.798Z,3.10
2018-11-10T13:29:08.344Z,3.27
2018-11-10T13:31:35.865Z,3.17
2018-11-10T13:34:04.767Z,2.97
2018-11-10T13:36:38.846Z,3.10
2018-11-10T13:39:06.925Z,3.20
2018-11-10T13:41:34.552Z,3.23
2018-11-10T13:44:08.575Z,3.00
2018-11-10T13:46:36.864Z,2.97
2018-11-10T13:49:04.307Z,2.53
2018-11-10T13:51:32.728Z,2.60
2018-11-10T13:53:59.970Z,2.63
2018-11-10T13:56:27.414Z,2.60
2018-11-10T13:58:54.970Z,2.83
2018-11-10T14:01:22.617Z,2.43
2018-11-10T14:03:50.215Z,2.33
2018-11-10T14:06:17.945Z,2.57
2018-11-10T14:08:51.775Z,2.90
2018-11-10T14:11:19.216Z,2.43
2018-11-10T14:13:47.572Z,2.73
2018-11-10T14:16:15.235Z,2.60
2018-11-10T14:18:49.133Z,2.87
2018-11-10T14:21:17.791Z,2.43
2018-11-10T14:23:51.573Z,2.50
2018-11-10T14:26:19.242Z,2.23
2018-11-10T14:28:46.698Z,2.60
2018-11-10T14:31:14.370Z,2.37
2018-11-10T14:33:48.156Z,2.20
2018-11-10T14:36:16.739Z,1.90
2018-11-10T14:38:44.528Z,2.40
2018-11-10T14:41:18.525Z,2.17
2018-11-10T14:43:46.089Z,2.03
2018-11-10T14:47:17.764Z,2.57
2018-11-10T14:49:51.606Z,2.17
2018-11-10T14:52:19.137Z,2.50
2018-11-10T14:54:52.912Z,2.80
2018-11-10T14:57:20.429Z,2.43
2018-11-10T14:59:48.637Z,2.67
2018-11-10T15:02:16.045Z,2.87
2018-11-10T15:04:43.529Z,3.00
2018-11-10T15:07:12.849Z,2.90
2018-11-10T15:09:40.286Z,3.03
2018-11-10T15:13:34.405Z,3.17
2018-11-10T15:16:01.801Z,3.30
2018-11-10T15:18:29.303Z,3.73
2018-11-10T15:20:56.661Z,3.53
2018-11-10T15:23:30.499Z,3.50
2018-11-10T15:26:04.423Z,4.60
2018-11-10T15:28:38.065Z,4.03
2018-11-10T15:31:05.558Z,4.67
2018-11-10T15:33:34.029Z,5.07
2018-11-10T15:36:01.770Z,5.50
2018-11-10T15:38:35.900Z,7.20
2018-11-10T15:41:10.029Z,5.80
2018-11-10T15:43:37.817Z,5.90
2018-11-10T15:46:05.593Z,6.47
2018-11-10T15:48:32.995Z,6.10
2018-11-10T15:51:00.734Z,6.03
2018-11-10T15:53:31.197Z,7.20
2018-11-10T15:56:05.115Z,6.80
2018-11-10T16:00:02.069Z,10.47
2018-11-10T16:02:35.685Z,9.10
2018-11-10T16:05:03.186Z,7.00
2018-11-10T16:07:30.781Z,7.60
2018-11-10T16:09:58.756Z,8.97
2018-11-10T16:12:26.262Z,8.07
2018-11-10T16:15:00.073Z,11.37
2018-11-10T16:17:27.438Z,9.03
2018-11-10T16:20:00.966Z,10.70
2018-11-10T16:29:37.489Z,15.47
2018-11-10T16:32:09.922Z,11.80
2018-11-10T16:34:43.507Z,11.60
2018-11-10T16:37:12.932Z,11.77
2018-11-10T16:39:46.490Z,11.83
2018-11-10T16:42:14.693Z,12.53
2018-11-10T16:44:43.053Z,13.93
2018-11-10T16:47:10.525Z,12.97
2018-11-10T16:49:44.177Z,10.70
2018-11-10T16:52:17.749Z,10.73
2018-11-10T16:54:45.362Z,11.67
2018-11-10T16:57:12.766Z,10.77
2018-11-10T16:59:40.450Z,10.87
2018-11-10T17:02:07.882Z,11.97
2018-11-10T17:04:35.693Z,11.47
2018-11-10T17:07:04.384Z,13.63
2018-11-10T17:09:31.769Z,10.53
2018-11-10T17:12:01.073Z,10.60
2018-11-10T17:14:34.650Z,9.57
2018-11-10T17:17:02.109Z,10.77
2018-11-10T17:19:29.508Z,10.10
2018-11-10T17:21:57.164Z,9.00
2018-11-10T17:24:24.367Z,10.10
2018-11-10T17:26:51.772Z,9.57
2018-11-10T17:29:19.163Z,10.43
2018-11-10T17:31:47.336Z,10.40
2018-11-10T17:34:14.806Z,10.20
2018-11-10T17:36:43.217Z,9.40
2018-11-10T17:39:10.720Z,9.30
2018-11-10T17:41:37.991Z,9.50
2018-11-10T17:44:05.725Z,9.53
2018-11-10T17:46:33.946Z,11.10
2018-11-10T17:49:01.335Z,9.37
2018-11-10T17:51:28.923Z,10.40
2018-11-10T17:53:57.268Z,10.07
2018-11-10T17:56:30.835Z,9.37
2018-11-10T17:58:58.252Z,8.07
2018-11-10T18:01:25.699Z,7.43
2018-11-10T18:03:53.933Z,7.70
2018-11-10T18:06:22.205Z,8.07
2018-11-10T18:08:49.652Z,7.53
2018-11-10T18:11:17.058Z,7.87
2018-11-10T18:13:44.540Z,8.30
2018-11-10T18:16:12.475Z,8.30
2018-11-10T18:18:46.116Z,8.10
2018-11-10T18:21:19.750Z,7.10
2018-11-10T18:23:53.456Z,6.70
2018-11-10T18:26:20.934Z,6.73
2018-11-10T18:28:48.472Z,6.87
2018-11-10T18:31:22.522Z,7.33
2018-11-10T18:33:49.946Z,6.87
2018-11-10T18:36:17.391Z,7.43
2018-11-10T18:38:44.816Z,7.93
2018-11-10T18:41:13.088Z,7.37
2018-11-10T18:43:40.487Z,7.77
2018-11-10T18:46:07.887Z,8.03
2018-11-10T18:48:41.595Z,7.87
2018-11-10T18:51:15.197Z,7.97
2018-11-10T18:53:42.632Z,7.10
2018-11-10T18:56:16.414Z,6.83
2018-11-10T18:58:43.917Z,7.30
2018-11-10T19:01:11.482Z,7.07
2018-11-10T19:03:40.227Z,6.37
2018-11-10T19:06:07.785Z,6.77
2018-11-10T19:08:35.110Z,6.93
2018-11-10T19:11:04.466Z,6.67
2018-11-10T19:13:38.103Z,7.83
2018-11-10T19:16:05.861Z,7.53
2018-11-10T19:18:33.322Z,6.27
2018-11-10T19:21:00.905Z,7.20
2018-11-10T19:23:34.612Z,7.57
2018-11-10T19:26:02.047Z,7.97
2018-11-10T19:28:35.644Z,7.93
2018-11-10T19:31:03.309Z,8.70
2018-11-10T19:33:31.581Z,7.70
2018-11-10T19:35:59.072Z,7.20
2018-11-10T19:38:26.665Z,6.77
2018-11-10T19:41:00.732Z,6.73
2018-11-10T19:43:34.564Z,6.50
2018-11-10T19:46:02.938Z,6.67
2018-11-10T19:48:30.488Z,7.40
2018-11-10T19:51:10.988Z,7.10
2018-11-10T19:53:44.579Z,6.67
2018-11-10T19:56:12.261Z,6.70
2018-11-10T19:58:39.783Z,6.77
2018-11-10T20:01:13.346Z,6.23
2018-11-10T20:03:46.994Z,6.30
2018-11-10T20:06:20.786Z,6.43
2018-11-10T20:08:48.220Z,6.20
2018-11-10T20:11:17.545Z,6.30
2018-11-10T20:13:51.245Z,6.60
2018-11-10T20:16:18.816Z,7.07
2018-11-10T20:18:46.337Z,7.37
2018-11-10T20:21:13.821Z,7.80
2018-11-10T20:23:47.551Z,8.00
2018-11-10T20:26:14.961Z,8.13
2018-11-10T20:28:48.498Z,8.17
2018-11-10T20:31:16.220Z,8.30
2018-11-10T20:33:50.382Z,8.07
2018-11-10T20:37:22.463Z,9.57
2018-11-10T20:39:50.831Z,9.43
2018-11-10T20:42:18.241Z,7.87
2018-11-10T20:44:45.751Z,8.10
2018-11-10T20:47:13.994Z,8.93
2018-11-10T20:49:47.804Z,9.23
2018-11-10T20:52:21.472Z,10.30
2018-11-10T20:54:48.903Z,10.43
2018-11-10T20:57:16.342Z,10.67
2018-11-10T20:59:51.289Z,11.57
2018-11-10T21:02:25.095Z,11.33
2018-11-10T21:04:58.906Z,11.73
2018-11-10T21:07:32.557Z,12.53
2018-11-10T21:10:00.789Z,13.10
2018-11-10T21:12:28.228Z,12.07
2018-11-10T21:14:55.711Z,13.33
2018-11-10T21:17:23.183Z,12.87
2018-11-10T21:19:56.955Z,13.33
2018-11-10T21:22:30.875Z,12.90
2018-11-10T21:24:58.284Z,13.97
2018-11-10T21:27:25.724Z,14.87
2018-11-10T21:29:53.979Z,14.33
2018-11-10T21:32:21.742Z,13.27
2018-11-10T21:34:49.183Z,12.30
2018-11-10T21:37:16.595Z,11.97
2018-11-10T21:39:44.002Z,12.97
2018-11-10T21:42:17.750Z,11.50
2018-11-10T21:44:51.377Z,12.27
2018-11-10T21:47:25.109Z,11.27
2018-11-10T21:49:52.593Z,10.73
2018-11-10T21:52:26.023Z,11.50
2018-11-10T21:54:53.430Z,10.43
2018-11-10T21:57:20.843Z,10.70
2018-11-10T21:59:48.227Z,11.03
2018-11-10T22:02:28.696Z,10.17
2018-11-10T22:04:56.350Z,10.73
2018-11-10T22:07:26.813Z,10.27
2018-11-10T22:09:54.247Z,10.37
2018-11-10T22:12:27.957Z,9.00
2018-11-10T22:14:55.359Z,9.87
2018-11-10T22:17:22.849Z,10.20
2018-11-10T22:19:56.582Z,8.47
2018-11-10T22:22:30.359Z,9.50
2018-11-10T22:25:04.772Z,9.70
2018-11-10T22:27:39.536Z,9.10
2018-11-10T22:31:32.222Z,9.10
2018-11-10T22:34:00.545Z,8.50
2018-11-10T22:36:27.972Z,10.93
2018-11-10T22:39:01.733Z,10.23
2018-11-10T22:41:35.315Z,12.00
2018-11-10T22:44:02.820Z,11.23
2018-11-10T22:46:30.521Z,10.47
2018-11-10T22:49:04.394Z,10.03
2018-11-10T22:51:31.988Z,11.70
2018-11-10T22:54:05.991Z,10.90
2018-11-10T22:56:33.508Z,10.07
2018-11-10T22:59:08.111Z,10.93
2018-11-10T23:01:41.711Z,9.80
2018-11-10T23:04:09.222Z,8.60
2018-11-10T23:06:36.740Z,9.23
2018-11-10T23:09:06.678Z,9.20
2018-11-10T23:11:34.079Z,9.33
2018-11-10T23:14:02.409Z,7.47
2018-11-10T23:16:36.201Z,7.77
2018-11-10T23:19:03.714Z,8.13
2018-11-10T23:21:37.414Z,8.17
2018-11-10T23:24:04.869Z,7.83
2018-11-10T23:26:32.282Z,6.70
2018-11-10T23:29:01.723Z,7.03
2018-11-10T23:31:29.212Z,6.93
2018-11-10T23:33:57.486Z,6.77
2018-11-10T23:36:25.873Z,6.53
2018-11-10T23:38:53.444Z,6.40
2018-11-10T23:41:20.970Z,5.67
2018-11-10T23:43:49.245Z,6.10
2018-11-10T23:46:17.421Z,5.93
2018-11-10T23:48:45.607Z,5.90
2018-11-10T23:51:13.009Z,6.53
2018-11-10T23:53:40.396Z,6.80
2018-11-10T23:56:07.822Z,6.43
2018-11-10T23:58:35.516Z,7.07
